sensor_id;sensor_type;location;lat;lon;timestamp;P1;durP1;ratioP1;P2;durP2;ratioP2
15500;SDS011;7852;52.228;5.990;2023-11-19T00:01:00;19.2;;;13.8;;
15500;SDS011;7852;52.228;5.990;2023-11-19T00:01:28;16.3;;;12.8;;
15500;SDS011;7852;52.228;5.990;2023-11-19T00:02:28;17.8;;;12;;
15500;SDS011;7852;52.228;5.990;2023-11-19T00:03:29;12;;;9.5;;
15500;SDS011;7852;52.228;5.990;2023-11-19T00:04:29;13.9;;;10.2;;
15500;SDS011;7852;52.228;5.990;2023-11-19T00:05:28;24;;;13;;
15500;SDS011;7852;52.228;5.990;2023-11-19T00:06:28;19.5;;;12.1;;
15500;SDS011;7852;52.228;5.990;2023-11-19T00:07:29;14.2;;;11.4;;
15500;SDS011;7852;52.228;5.990;2023-11-19T00:08:28;17.7;;;15.9;;
15500;SDS011;7852;52.228;5.990;2023-11-19T00:09:29;12.5;;;9.8;;
15500;SDS011;7852;52.228;5.990;2023-11-19T00:10:30;19.7;;;12;;
15500;SDS011;7852;52.228;5.990;2023-11-19T00:11:30;16.7;;;11.8;;
15500;SDS011;7852;52.228;5.990;2023-11-19T00:12:29;19.9;;;11.9;;
15500;SDS011;7852;52.228;5.990;2023-11-19T00:13:30;12.7;;;9.9;;
15500;SDS011;7852;52.228;5.990;2023-11-19T00:14:29;15.7;;;10.2;;
15500;SDS011;7852;52.228;5.990;2023-11-19T00:15:29;11;;;8.6;;
15500;SDS011;7852;52.228;5.990;2023-11-19T00:16:29;12.7;;;8.5;;
15500;SDS011;7852;52.228;5.990;2023-11-19T00:17:30;16;;;10.8;;
15500;SDS011;7852;52.228;5.990;2023-11-19T00:18:29;16;;;10.5;;
15500;SDS011;7852;52.228;5.990;2023-11-19T00:19:30;21.1;;;10.9;;
15500;SDS011;7852;52.228;5.990;2023-11-19T00:20:30;14.3;;;10.8;;
15500;SDS011;7852;52.228;5.990;2023-11-19T00:21:30;11.4;;;10.1;;
15500;SDS011;7852;52.228;5.990;2023-11-19T00:22:29;13.5;;;9.2;;
15500;SDS011;7852;52.228;5.990;2023-11-19T00:23:30;15.8;;;9.3;;
15500;SDS011;7852;52.228;5.990;2023-11-19T00:24:29;13.9;;;9.7;;
15500;SDS011;7852;52.228;5.990;2023-11-19T00:25:30;14.9;;;9.9;;
15500;SDS011;7852;52.228;5.990;2023-11-19T00:26:31;18.2;;;10.1;;
15500;SDS011;7852;52.228;5.990;2023-11-19T00:27:31;13.8;;;9.9;;
15500;SDS011;7852;52.228;5.990;2023-11-19T00:28:32;12.5;;;9.9;;
15500;SDS011;7852;52.228;5.990;2023-11-19T00:29:32;10.8;;;9;;
15500;SDS011;7852;52.228;5.990;2023-11-19T00:30:32;11.9;;;10.9;;
15500;SDS011;7852;52.228;5.990;2023-11-19T00:31:32;14.8;;;9.1;;
15500;SDS011;7852;52.228;5.990;2023-11-19T00:32:31;14.7;;;9;;
15500;SDS011;7852;52.228;5.990;2023-11-19T00:33:32;15.5;;;9.3;;
15500;SDS011;7852;52.228;5.990;2023-11-19T00:34:32;12.6;;;9.5;;
15500;SDS011;7852;52.228;5.990;2023-11-19T00:35:31;16.9;;;9.5;;
15500;SDS011;7852;52.228;5.990;2023-11-19T00:36:32;14.5;;;8.9;;
15500;SDS011;7852;52.228;5.990;2023-11-19T00:37:33;14.9;;;9.3;;
15500;SDS011;7852;52.228;5.990;2023-11-19T00:38:33;15.5;;;8.9;;
15500;SDS011;7852;52.228;5.990;2023-11-19T00:39:33;14.5;;;7.8;;
15500;SDS011;7852;52.228;5.990;2023-11-19T00:40:33;14;;;9.1;;
15500;SDS011;7852;52.228;5.990;2023-11-19T00:41:33;12.6;;;9.2;;
15500;SDS011;7852;52.228;5.990;2023-11-19T00:42:34;15.7;;;8.7;;
15500;SDS011;7852;52.228;5.990;2023-11-19T00:43:34;13.6;;;8.7;;
15500;SDS011;7852;52.228;5.990;2023-11-19T00:44:35;14.2;;;8.9;;
15500;SDS011;7852;52.228;5.990;2023-11-19T00:45:35;14.2;;;8.8;;
15500;SDS011;7852;52.228;5.990;2023-11-19T00:46:35;10.4;;;7.3;;
15500;SDS011;7852;52.228;5.990;2023-11-19T00:47:35;12.2;;;11;;
15500;SDS011;7852;52.228;5.990;2023-11-19T00:48:35;16.2;;;9.2;;
15500;SDS011;7852;52.228;5.990;2023-11-19T00:49:35;14.9;;;8.5;;
15500;SDS011;7852;52.228;5.990;2023-11-19T00:50:35;16.2;;;9.1;;
15500;SDS011;7852;52.228;5.990;2023-11-19T00:51:36;15.8;;;9.3;;
15500;SDS011;7852;52.228;5.990;2023-11-19T00:52:35;16.6;;;9;;
15500;SDS011;7852;52.228;5.990;2023-11-19T00:53:36;12.8;;;8;;
15500;SDS011;7852;52.228;5.990;2023-11-19T00:54:35;14.7;;;8.2;;
15500;SDS011;7852;52.228;5.990;2023-11-19T00:55:36;14;;;8.6;;
15500;SDS011;7852;52.228;5.990;2023-11-19T00:56:36;13.9;;;8.7;;
15500;SDS011;7852;52.228;5.990;2023-11-19T00:57:36;13.3;;;9;;
15500;SDS011;7852;52.228;5.990;2023-11-19T00:58:36;13.2;;;8.9;;
15500;SDS011;7852;52.228;5.990;2023-11-19T00:59:36;13.7;;;8.1;;
15500;SDS011;7852;52.228;5.990;2023-11-19T01:00:36;12;;;7.9;;
15500;SDS011;7852;52.228;5.990;2023-11-19T01:01:36;12.6;;;8;;
15500;SDS011;7852;52.228;5.990;2023-11-19T01:02:36;13.6;;;8;;
15500;SDS011;7852;52.228;5.990;2023-11-19T01:03:36;18.1;;;8.5;;
15500;SDS011;7852;52.228;5.990;2023-11-19T01:04:36;13;;;7.7;;
15500;SDS011;7852;52.228;5.990;2023-11-19T01:05:36;12;;;7.7;;
15500;SDS011;7852;52.228;5.990;2023-11-19T01:06:36;10.2;;;7.2;;
15500;SDS011;7852;52.228;5.990;2023-11-19T01:07:36;17.1;;;8.5;;
15500;SDS011;7852;52.228;5.990;2023-11-19T01:08:36;9;;;7.4;;
15500;SDS011;7852;52.228;5.990;2023-11-19T01:09:36;12.1;;;7.6;;
15500;SDS011;7852;52.228;5.990;2023-11-19T01:10:36;10.1;;;7.8;;
15500;SDS011;7852;52.228;5.990;2023-11-19T01:11:36;14.9;;;6.9;;
15500;SDS011;7852;52.228;5.990;2023-11-19T01:12:36;19.9;;;8.6;;
15500;SDS011;7852;52.228;5.990;2023-11-19T01:13:36;15.7;;;8.2;;
15500;SDS011;7852;52.228;5.990;2023-11-19T01:14:36;13.8;;;8;;
15500;SDS011;7852;52.228;5.990;2023-11-19T01:15:36;11.8;;;7.2;;
15500;SDS011;7852;52.228;5.990;2023-11-19T01:16:36;15.4;;;7.5;;
15500;SDS011;7852;52.228;5.990;2023-11-19T01:17:36;17.5;;;8.8;;
15500;SDS011;7852;52.228;5.990;2023-11-19T01:18:36;11.8;;;8;;
15500;SDS011;7852;52.228;5.990;2023-11-19T01:19:36;12.9;;;6.8;;
15500;SDS011;7852;52.228;5.990;2023-11-19T01:20:36;15.9;;;8.1;;
15500;SDS011;7852;52.228;5.990;2023-11-19T01:21:36;12.6;;;7.7;;
15500;SDS011;7852;52.228;5.990;2023-11-19T01:22:36;14.8;;;8.8;;
15500;SDS011;7852;52.228;5.990;2023-11-19T01:23:36;12.2;;;9.1;;
15500;SDS011;7852;52.228;5.990;2023-11-19T01:24:36;18.9;;;8.4;;
15500;SDS011;7852;52.228;5.990;2023-11-19T01:25:36;17.4;;;7.8;;
15500;SDS011;7852;52.228;5.990;2023-11-19T01:26:36;16.7;;;6.7;;
15500;SDS011;7852;52.228;5.990;2023-11-19T01:27:36;15.5;;;7;;
15500;SDS011;7852;52.228;5.990;2023-11-19T01:28:36;10.9;;;7.1;;
15500;SDS011;7852;52.228;5.990;2023-11-19T01:29:36;9.4;;;7.3;;
15500;SDS011;7852;52.228;5.990;2023-11-19T01:30:53;12.2;;;6.7;;
15500;SDS011;7852;52.228;5.990;2023-11-19T01:31:36;13;;;7.5;;
15500;SDS011;7852;52.228;5.990;2023-11-19T01:32:36;14.4;;;6.6;;
15500;SDS011;7852;52.228;5.990;2023-11-19T01:33:36;14;;;7.3;;
15500;SDS011;7852;52.228;5.990;2023-11-19T01:34:37;18;;;7.5;;
15500;SDS011;7852;52.228;5.990;2023-11-19T01:35:37;14.7;;;7.9;;
15500;SDS011;7852;52.228;5.990;2023-11-19T01:36:37;16.2;;;8.2;;
15500;SDS011;7852;52.228;5.990;2023-11-19T01:37:38;15.2;;;8.3;;
15500;SDS011;7852;52.228;5.990;2023-11-19T01:38:38;21.7;;;8.8;;
15500;SDS011;7852;52.228;5.990;2023-11-19T01:39:38;11;;;6.7;;
15500;SDS011;7852;52.228;5.990;2023-11-19T01:40:38;12.6;;;9.8;;
15500;SDS011;7852;52.228;5.990;2023-11-19T01:41:38;14.2;;;7.9;;
15500;SDS011;7852;52.228;5.990;2023-11-19T01:42:38;16.7;;;8.4;;
15500;SDS011;7852;52.228;5.990;2023-11-19T01:43:39;16.8;;;7.8;;
15500;SDS011;7852;52.228;5.990;2023-11-19T01:44:38;16.3;;;7.4;;
15500;SDS011;7852;52.228;5.990;2023-11-19T01:45:38;11.9;;;6.9;;
15500;SDS011;7852;52.228;5.990;2023-11-19T01:46:38;16.4;;;7.6;;
15500;SDS011;7852;52.228;5.990;2023-11-19T01:47:38;13.8;;;7.3;;
15500;SDS011;7852;52.228;5.990;2023-11-19T01:48:39;13.5;;;7.2;;
15500;SDS011;7852;52.228;5.990;2023-11-19T01:49:38;16.5;;;6.9;;
15500;SDS011;7852;52.228;5.990;2023-11-19T01:50:38;22.5;;;8.2;;
15500;SDS011;7852;52.228;5.990;2023-11-19T01:51:38;14.9;;;8;;
15500;SDS011;7852;52.228;5.990;2023-11-19T01:52:39;10.9;;;9.8;;
15500;SDS011;7852;52.228;5.990;2023-11-19T01:53:39;17.6;;;7.7;;
15500;SDS011;7852;52.228;5.990;2023-11-19T01:54:39;18.7;;;8.1;;
15500;SDS011;7852;52.228;5.990;2023-11-19T01:55:39;14.3;;;6.8;;
15500;SDS011;7852;52.228;5.990;2023-11-19T01:56:39;13;;;7.4;;
15500;SDS011;7852;52.228;5.990;2023-11-19T01:57:41;21.9;;;7.3;;
15500;SDS011;7852;52.228;5.990;2023-11-19T01:58:41;15.7;;;7.2;;
15500;SDS011;7852;52.228;5.990;2023-11-19T01:59:41;13.8;;;6.2;;
15500;SDS011;7852;52.228;5.990;2023-11-19T02:00:41;13.9;;;7.5;;
15500;SDS011;7852;52.228;5.990;2023-11-19T02:01:41;17.4;;;7.4;;
15500;SDS011;7852;52.228;5.990;2023-11-19T02:02:41;13.8;;;6.6;;
15500;SDS011;7852;52.228;5.990;2023-11-19T02:03:41;20.3;;;7.6;;
15500;SDS011;7852;52.228;5.990;2023-11-19T02:04:42;13.5;;;7.1;;
15500;SDS011;7852;52.228;5.990;2023-11-19T02:05:42;19;;;7.4;;
15500;SDS011;7852;52.228;5.990;2023-11-19T02:06:43;16.5;;;7.1;;
15500;SDS011;7852;52.228;5.990;2023-11-19T02:07:46;16.1;;;6.8;;
15500;SDS011;7852;52.228;5.990;2023-11-19T02:08:43;17.3;;;7.4;;
15500;SDS011;7852;52.228;5.990;2023-11-19T02:09:43;15.3;;;6.8;;
15500;SDS011;7852;52.228;5.990;2023-11-19T02:10:43;13.5;;;7.1;;
15500;SDS011;7852;52.228;5.990;2023-11-19T02:11:43;21.2;;;7.6;;
15500;SDS011;7852;52.228;5.990;2023-11-19T02:12:43;18.9;;;7.8;;
15500;SDS011;7852;52.228;5.990;2023-11-19T02:13:43;17.2;;;7.9;;
15500;SDS011;7852;52.228;5.990;2023-11-19T02:14:43;19.3;;;7.1;;
15500;SDS011;7852;52.228;5.990;2023-11-19T02:15:43;16.1;;;6.6;;
15500;SDS011;7852;52.228;5.990;2023-11-19T02:16:43;18.2;;;7.5;;
15500;SDS011;7852;52.228;5.990;2023-11-19T02:17:43;20.6;;;7.4;;
15500;SDS011;7852;52.228;5.990;2023-11-19T02:18:43;21.9;;;7.2;;
15500;SDS011;7852;52.228;5.990;2023-11-19T02:19:43;13.1;;;6.3;;
15500;SDS011;7852;52.228;5.990;2023-11-19T02:20:43;18.7;;;7.6;;
15500;SDS011;7852;52.228;5.990;2023-11-19T02:21:43;11.6;;;6.6;;
15500;SDS011;7852;52.228;5.990;2023-11-19T02:22:43;20;;;7.3;;
15500;SDS011;7852;52.228;5.990;2023-11-19T02:23:43;20.9;;;7.3;;
15500;SDS011;7852;52.228;5.990;2023-11-19T02:24:43;19.6;;;7.1;;
15500;SDS011;7852;52.228;5.990;2023-11-19T02:25:43;17.7;;;7;;
15500;SDS011;7852;52.228;5.990;2023-11-19T02:26:44;19.6;;;6.9;;
15500;SDS011;7852;52.228;5.990;2023-11-19T02:27:46;6.9;;;5.7;;
15500;SDS011;7852;52.228;5.990;2023-11-19T02:28:43;14.1;;;6.5;;
15500;SDS011;7852;52.228;5.990;2023-11-19T02:29:43;14.7;;;6.8;;
15500;SDS011;7852;52.228;5.990;2023-11-19T02:30:43;22.2;;;8.2;;
15500;SDS011;7852;52.228;5.990;2023-11-19T02:31:43;20.4;;;7.5;;
15500;SDS011;7852;52.228;5.990;2023-11-19T02:32:43;15.1;;;5.4;;
15500;SDS011;7852;52.228;5.990;2023-11-19T02:33:43;19.9;;;7;;
15500;SDS011;7852;52.228;5.990;2023-11-19T02:34:43;12.4;;;6.6;;
15500;SDS011;7852;52.228;5.990;2023-11-19T02:35:43;13.2;;;6.7;;
15500;SDS011;7852;52.228;5.990;2023-11-19T02:36:43;20.3;;;6.9;;
15500;SDS011;7852;52.228;5.990;2023-11-19T02:37:43;16.6;;;7.4;;
15500;SDS011;7852;52.228;5.990;2023-11-19T02:38:43;16.1;;;6.6;;
15500;SDS011;7852;52.228;5.990;2023-11-19T02:39:43;19;;;7.5;;
15500;SDS011;7852;52.228;5.990;2023-11-19T02:40:43;19;;;7.2;;
15500;SDS011;7852;52.228;5.990;2023-11-19T02:41:43;14;;;6.7;;
15500;SDS011;7852;52.228;5.990;2023-11-19T02:42:43;17.7;;;8.4;;
15500;SDS011;7852;52.228;5.990;2023-11-19T02:43:43;19.4;;;6.7;;
15500;SDS011;7852;52.228;5.990;2023-11-19T02:44:43;21.3;;;7.1;;
15500;SDS011;7852;52.228;5.990;2023-11-19T02:45:43;15.4;;;6.6;;
15500;SDS011;7852;52.228;5.990;2023-11-19T02:46:43;17.6;;;6.9;;
15500;SDS011;7852;52.228;5.990;2023-11-19T02:47:43;14.2;;;6.3;;
15500;SDS011;7852;52.228;5.990;2023-11-19T02:48:43;23;;;6.9;;
15500;SDS011;7852;52.228;5.990;2023-11-19T02:49:43;20.8;;;7.7;;
15500;SDS011;7852;52.228;5.990;2023-11-19T02:50:43;19.9;;;7.7;;
15500;SDS011;7852;52.228;5.990;2023-11-19T02:51:43;15.6;;;7.3;;
15500;SDS011;7852;52.228;5.990;2023-11-19T02:52:43;16.1;;;7.6;;
15500;SDS011;7852;52.228;5.990;2023-11-19T02:53:43;22.1;;;7.6;;
15500;SDS011;7852;52.228;5.990;2023-11-19T02:54:43;17;;;6.8;;
15500;SDS011;7852;52.228;5.990;2023-11-19T02:55:43;19;;;7.1;;
15500;SDS011;7852;52.228;5.990;2023-11-19T02:56:43;20.1;;;6.3;;
15500;SDS011;7852;52.228;5.990;2023-11-19T02:57:43;20.4;;;7.8;;
15500;SDS011;7852;52.228;5.990;2023-11-19T02:58:43;20.5;;;7.3;;
15500;SDS011;7852;52.228;5.990;2023-11-19T02:59:43;20;;;7.3;;
15500;SDS011;7852;52.228;5.990;2023-11-19T03:00:43;24.4;;;7.6;;
15500;SDS011;7852;52.228;5.990;2023-11-19T03:01:43;23.1;;;7.7;;
15500;SDS011;7852;52.228;5.990;2023-11-19T03:02:43;17.5;;;7;;
15500;SDS011;7852;52.228;5.990;2023-11-19T03:03:43;15.9;;;7.2;;
15500;SDS011;7852;52.228;5.990;2023-11-19T03:04:43;24.4;;;8.3;;
15500;SDS011;7852;52.228;5.990;2023-11-19T03:05:43;23;;;7.5;;
15500;SDS011;7852;52.228;5.990;2023-11-19T03:06:43;14.5;;;7.5;;
15500;SDS011;7852;52.228;5.990;2023-11-19T03:07:43;21.7;;;7.7;;
15500;SDS011;7852;52.228;5.990;2023-11-19T03:08:43;29.4;;;8.1;;
15500;SDS011;7852;52.228;5.990;2023-11-19T03:09:43;22.1;;;8.3;;
15500;SDS011;7852;52.228;5.990;2023-11-19T03:10:43;21;;;7.1;;
15500;SDS011;7852;52.228;5.990;2023-11-19T03:11:43;15.4;;;7.2;;
15500;SDS011;7852;52.228;5.990;2023-11-19T03:12:43;19.6;;;7.7;;
15500;SDS011;7852;52.228;5.990;2023-11-19T03:13:44;21.5;;;7.5;;
15500;SDS011;7852;52.228;5.990;2023-11-19T03:14:43;26.5;;;7.6;;
15500;SDS011;7852;52.228;5.990;2023-11-19T03:15:44;26.3;;;8.3;;
15500;SDS011;7852;52.228;5.990;2023-11-19T03:16:44;15.2;;;9.8;;
15500;SDS011;7852;52.228;5.990;2023-11-19T03:17:43;16.3;;;7.3;;
15500;SDS011;7852;52.228;5.990;2023-11-19T03:18:43;22.2;;;8.2;;
15500;SDS011;7852;52.228;5.990;2023-11-19T03:19:43;17.1;;;7.7;;
15500;SDS011;7852;52.228;5.990;2023-11-19T03:20:43;24.1;;;7.7;;
15500;SDS011;7852;52.228;5.990;2023-11-19T03:21:43;14.9;;;6.2;;
15500;SDS011;7852;52.228;5.990;2023-11-19T03:22:43;16.2;;;7.2;;
15500;SDS011;7852;52.228;5.990;2023-11-19T03:23:43;20.5;;;8;;
15500;SDS011;7852;52.228;5.990;2023-11-19T03:24:43;16.7;;;7.6;;
15500;SDS011;7852;52.228;5.990;2023-11-19T03:25:43;17.8;;;8.7;;
15500;SDS011;7852;52.228;5.990;2023-11-19T03:26:46;26.5;;;7.7;;
15500;SDS011;7852;52.228;5.990;2023-11-19T03:27:43;18.4;;;7.7;;
15500;SDS011;7852;52.228;5.990;2023-11-19T03:28:43;17.1;;;6.5;;
15500;SDS011;7852;52.228;5.990;2023-11-19T03:29:43;15.4;;;10.3;;
15500;SDS011;7852;52.228;5.990;2023-11-19T03:30:43;17.1;;;7.1;;
15500;SDS011;7852;52.228;5.990;2023-11-19T03:31:43;19.4;;;7.9;;
15500;SDS011;7852;52.228;5.990;2023-11-19T03:32:43;21.4;;;7;;
15500;SDS011;7852;52.228;5.990;2023-11-19T03:33:43;24.8;;;7.8;;
15500;SDS011;7852;52.228;5.990;2023-11-19T03:34:43;19.4;;;7;;
15500;SDS011;7852;52.228;5.990;2023-11-19T03:35:43;21.2;;;7.1;;
15500;SDS011;7852;52.228;5.990;2023-11-19T03:36:43;22.4;;;8.3;;
15500;SDS011;7852;52.228;5.990;2023-11-19T03:37:43;22;;;7.3;;
15500;SDS011;7852;52.228;5.990;2023-11-19T03:38:43;14.7;;;6.8;;
15500;SDS011;7852;52.228;5.990;2023-11-19T03:39:43;22.9;;;10.2;;
15500;SDS011;7852;52.228;5.990;2023-11-19T03:40:43;17.8;;;7.9;;
15500;SDS011;7852;52.228;5.990;2023-11-19T03:41:45;20.2;;;8.3;;
15500;SDS011;7852;52.228;5.990;2023-11-19T03:42:43;20.1;;;7.6;;
15500;SDS011;7852;52.228;5.990;2023-11-19T03:43:43;13.6;;;6.5;;
15500;SDS011;7852;52.228;5.990;2023-11-19T03:44:44;24;;;6.8;;
15500;SDS011;7852;52.228;5.990;2023-11-19T03:45:44;15.8;;;6.3;;
15500;SDS011;7852;52.228;5.990;2023-11-19T03:46:43;25.4;;;7.8;;
15500;SDS011;7852;52.228;5.990;2023-11-19T03:47:43;26.4;;;7.7;;
15500;SDS011;7852;52.228;5.990;2023-11-19T03:48:43;15.1;;;6.4;;
15500;SDS011;7852;52.228;5.990;2023-11-19T03:49:46;20.3;;;7.7;;
15500;SDS011;7852;52.228;5.990;2023-11-19T03:50:43;17;;;7.2;;
15500;SDS011;7852;52.228;5.990;2023-11-19T03:51:43;14.8;;;6.6;;
15500;SDS011;7852;52.228;5.990;2023-11-19T03:52:43;25;;;7.9;;
15500;SDS011;7852;52.228;5.990;2023-11-19T03:53:43;21.8;;;7.9;;
15500;SDS011;7852;52.228;5.990;2023-11-19T03:54:43;25;;;7.8;;
15500;SDS011;7852;52.228;5.990;2023-11-19T03:55:43;20.3;;;8.1;;
15500;SDS011;7852;52.228;5.990;2023-11-19T03:56:43;22.8;;;8.6;;
15500;SDS011;7852;52.228;5.990;2023-11-19T03:57:43;24.3;;;7.6;;
15500;SDS011;7852;52.228;5.990;2023-11-19T03:58:43;24.4;;;7.8;;
15500;SDS011;7852;52.228;5.990;2023-11-19T03:59:43;21.1;;;7.5;;
15500;SDS011;7852;52.228;5.990;2023-11-19T04:00:43;22.3;;;7.2;;
15500;SDS011;7852;52.228;5.990;2023-11-19T04:01:43;25.6;;;8.3;;
15500;SDS011;7852;52.228;5.990;2023-11-19T04:02:43;12.6;;;6.9;;
15500;SDS011;7852;52.228;5.990;2023-11-19T04:03:43;27.5;;;7.8;;
15500;SDS011;7852;52.228;5.990;2023-11-19T04:04:43;15.7;;;7;;
15500;SDS011;7852;52.228;5.990;2023-11-19T04:05:43;26.9;;;7.6;;
15500;SDS011;7852;52.228;5.990;2023-11-19T04:06:43;23.1;;;8.5;;
15500;SDS011;7852;52.228;5.990;2023-11-19T04:07:43;21.4;;;7.4;;
15500;SDS011;7852;52.228;5.990;2023-11-19T04:08:44;20.5;;;7.9;;
15500;SDS011;7852;52.228;5.990;2023-11-19T04:09:43;20.3;;;7.2;;
15500;SDS011;7852;52.228;5.990;2023-11-19T04:10:43;31.8;;;8.6;;
15500;SDS011;7852;52.228;5.990;2023-11-19T04:11:43;21.9;;;7.5;;
15500;SDS011;7852;52.228;5.990;2023-11-19T04:12:43;21.4;;;7.4;;
15500;SDS011;7852;52.228;5.990;2023-11-19T04:13:43;27;;;8.2;;
15500;SDS011;7852;52.228;5.990;2023-11-19T04:14:43;24.2;;;7.9;;
15500;SDS011;7852;52.228;5.990;2023-11-19T04:15:45;20.9;;;7.9;;
15500;SDS011;7852;52.228;5.990;2023-11-19T04:16:43;24.4;;;8.3;;
15500;SDS011;7852;52.228;5.990;2023-11-19T04:17:43;17.1;;;7.6;;
15500;SDS011;7852;52.228;5.990;2023-11-19T04:18:43;17.4;;;7.7;;
15500;SDS011;7852;52.228;5.990;2023-11-19T04:19:43;23.1;;;7.5;;
15500;SDS011;7852;52.228;5.990;2023-11-19T04:20:45;27.6;;;8.5;;
15500;SDS011;7852;52.228;5.990;2023-11-19T04:21:43;19.7;;;6.9;;
15500;SDS011;7852;52.228;5.990;2023-11-19T04:22:43;20;;;8.1;;
15500;SDS011;7852;52.228;5.990;2023-11-19T04:23:43;22.7;;;7.7;;
15500;SDS011;7852;52.228;5.990;2023-11-19T04:24:44;27.1;;;8.6;;
15500;SDS011;7852;52.228;5.990;2023-11-19T04:25:43;30;;;8.7;;
15500;SDS011;7852;52.228;5.990;2023-11-19T04:26:43;19;;;8.4;;
15500;SDS011;7852;52.228;5.990;2023-11-19T04:27:43;25;;;7.6;;
15500;SDS011;7852;52.228;5.990;2023-11-19T04:28:43;34.8;;;8.6;;
15500;SDS011;7852;52.228;5.990;2023-11-19T04:29:43;22.5;;;8.5;;
15500;SDS011;7852;52.228;5.990;2023-11-19T04:30:43;32.4;;;8.6;;
15500;SDS011;7852;52.228;5.990;2023-11-19T04:31:43;29.4;;;8;;
15500;SDS011;7852;52.228;5.990;2023-11-19T04:32:43;24.8;;;7.7;;
15500;SDS011;7852;52.228;5.990;2023-11-19T04:33:43;27.1;;;8;;
15500;SDS011;7852;52.228;5.990;2023-11-19T04:34:43;26.4;;;9.2;;
15500;SDS011;7852;52.228;5.990;2023-11-19T04:35:43;22.5;;;8.3;;
15500;SDS011;7852;52.228;5.990;2023-11-19T04:36:43;26.6;;;9;;
15500;SDS011;7852;52.228;5.990;2023-11-19T04:37:43;25.1;;;7.8;;
15500;SDS011;7852;52.228;5.990;2023-11-19T04:38:43;22.4;;;8.1;;
15500;SDS011;7852;52.228;5.990;2023-11-19T04:39:43;20;;;7.9;;
15500;SDS011;7852;52.228;5.990;2023-11-19T04:40:43;27.5;;;8.9;;
15500;SDS011;7852;52.228;5.990;2023-11-19T04:41:46;20.4;;;8.9;;
15500;SDS011;7852;52.228;5.990;2023-11-19T04:42:43;17.1;;;7.6;;
15500;SDS011;7852;52.228;5.990;2023-11-19T04:43:43;25.8;;;8.5;;
15500;SDS011;7852;52.228;5.990;2023-11-19T04:44:43;30.4;;;9.1;;
15500;SDS011;7852;52.228;5.990;2023-11-19T04:45:43;19.7;;;7.3;;
15500;SDS011;7852;52.228;5.990;2023-11-19T04:46:43;21.5;;;7.8;;
15500;SDS011;7852;52.228;5.990;2023-11-19T04:47:43;25.2;;;8.7;;
15500;SDS011;7852;52.228;5.990;2023-11-19T04:48:43;23.7;;;8.1;;
15500;SDS011;7852;52.228;5.990;2023-11-19T04:49:43;22;;;7.9;;
15500;SDS011;7852;52.228;5.990;2023-11-19T04:50:43;33.5;;;8.9;;
15500;SDS011;7852;52.228;5.990;2023-11-19T04:51:44;19.9;;;7.4;;
15500;SDS011;7852;52.228;5.990;2023-11-19T04:52:43;33.6;;;8.8;;
15500;SDS011;7852;52.228;5.990;2023-11-19T04:53:43;30.4;;;9.3;;
15500;SDS011;7852;52.228;5.990;2023-11-19T04:54:43;29.8;;;8.6;;
15500;SDS011;7852;52.228;5.990;2023-11-19T04:55:43;17.7;;;6.8;;
15500;SDS011;7852;52.228;5.990;2023-11-19T04:56:44;23.7;;;7.6;;
15500;SDS011;7852;52.228;5.990;2023-11-19T04:57:43;21.1;;;7.9;;
15500;SDS011;7852;52.228;5.990;2023-11-19T04:58:43;27.9;;;8.1;;
15500;SDS011;7852;52.228;5.990;2023-11-19T04:59:43;26.1;;;8.1;;
15500;SDS011;7852;52.228;5.990;2023-11-19T05:00:43;21.2;;;8.3;;
15500;SDS011;7852;52.228;5.990;2023-11-19T05:01:46;18.1;;;7.6;;
15500;SDS011;7852;52.228;5.990;2023-11-19T05:02:43;24.2;;;8.1;;
15500;SDS011;7852;52.228;5.990;2023-11-19T05:03:43;24.1;;;8.4;;
15500;SDS011;7852;52.228;5.990;2023-11-19T05:04:43;23;;;8.7;;
15500;SDS011;7852;52.228;5.990;2023-11-19T05:05:43;29.7;;;7.8;;
15500;SDS011;7852;52.228;5.990;2023-11-19T05:06:43;22.8;;;8.9;;
15500;SDS011;7852;52.228;5.990;2023-11-19T05:07:43;28.3;;;8.4;;
15500;SDS011;7852;52.228;5.990;2023-11-19T05:08:43;30.2;;;8.4;;
15500;SDS011;7852;52.228;5.990;2023-11-19T05:09:43;26.1;;;8.3;;
15500;SDS011;7852;52.228;5.990;2023-11-19T05:10:43;22.4;;;7.7;;
15500;SDS011;7852;52.228;5.990;2023-11-19T05:11:43;23.5;;;9.3;;
15500;SDS011;7852;52.228;5.990;2023-11-19T05:12:43;23.3;;;7.9;;
15500;SDS011;7852;52.228;5.990;2023-11-19T05:13:43;27.6;;;9;;
15500;SDS011;7852;52.228;5.990;2023-11-19T05:14:43;18.4;;;7.5;;
15500;SDS011;7852;52.228;5.990;2023-11-19T05:15:43;24.8;;;9;;
15500;SDS011;7852;52.228;5.990;2023-11-19T05:16:43;25.6;;;8.1;;
15500;SDS011;7852;52.228;5.990;2023-11-19T05:17:43;29.2;;;10.8;;
15500;SDS011;7852;52.228;5.990;2023-11-19T05:18:43;26.7;;;7.8;;
15500;SDS011;7852;52.228;5.990;2023-11-19T05:19:43;25.2;;;8.5;;
15500;SDS011;7852;52.228;5.990;2023-11-19T05:20:43;20.6;;;8;;
15500;SDS011;7852;52.228;5.990;2023-11-19T05:21:43;24.6;;;7.8;;
15500;SDS011;7852;52.228;5.990;2023-11-19T05:22:43;26.5;;;8.2;;
15500;SDS011;7852;52.228;5.990;2023-11-19T05:23:43;22.7;;;7.6;;
15500;SDS011;7852;52.228;5.990;2023-11-19T05:24:43;27.7;;;9.2;;
15500;SDS011;7852;52.228;5.990;2023-11-19T05:25:43;24.2;;;8.3;;
15500;SDS011;7852;52.228;5.990;2023-11-19T05:26:43;21.2;;;7.9;;
15500;SDS011;7852;52.228;5.990;2023-11-19T05:27:43;22.5;;;7.4;;
15500;SDS011;7852;52.228;5.990;2023-11-19T05:28:43;33.2;;;8.7;;
15500;SDS011;7852;52.228;5.990;2023-11-19T05:29:43;24;;;7.8;;
15500;SDS011;7852;52.228;5.990;2023-11-19T05:30:43;25.4;;;7.9;;
15500;SDS011;7852;52.228;5.990;2023-11-19T05:31:43;25.1;;;8.5;;
15500;SDS011;7852;52.228;5.990;2023-11-19T05:32:43;21.4;;;6.7;;
15500;SDS011;7852;52.228;5.990;2023-11-19T05:33:43;21.4;;;8.4;;
15500;SDS011;7852;52.228;5.990;2023-11-19T05:34:43;19.7;;;9.9;;
15500;SDS011;7852;52.228;5.990;2023-11-19T05:35:43;23.4;;;7.8;;
15500;SDS011;7852;52.228;5.990;2023-11-19T05:36:43;23.8;;;7.8;;
15500;SDS011;7852;52.228;5.990;2023-11-19T05:37:43;32.7;;;8.6;;
15500;SDS011;7852;52.228;5.990;2023-11-19T05:38:43;30;;;7.5;;
15500;SDS011;7852;52.228;5.990;2023-11-19T05:39:43;27.9;;;7.8;;
15500;SDS011;7852;52.228;5.990;2023-11-19T05:40:43;23.7;;;8.4;;
15500;SDS011;7852;52.228;5.990;2023-11-19T05:41:43;26;;;10.9;;
15500;SDS011;7852;52.228;5.990;2023-11-19T05:42:43;25.1;;;8.4;;
15500;SDS011;7852;52.228;5.990;2023-11-19T05:43:43;31.5;;;8.5;;
15500;SDS011;7852;52.228;5.990;2023-11-19T05:44:43;29.1;;;8.4;;
15500;SDS011;7852;52.228;5.990;2023-11-19T05:45:43;30.4;;;8.1;;
15500;SDS011;7852;52.228;5.990;2023-11-19T05:46:43;19.9;;;6.8;;
15500;SDS011;7852;52.228;5.990;2023-11-19T05:47:43;16.5;;;6.8;;
15500;SDS011;7852;52.228;5.990;2023-11-19T05:48:43;27.1;;;8.1;;
15500;SDS011;7852;52.228;5.990;2023-11-19T05:49:43;24.8;;;7.2;;
15500;SDS011;7852;52.228;5.990;2023-11-19T05:50:43;25.2;;;8.2;;
15500;SDS011;7852;52.228;5.990;2023-11-19T05:51:43;30.9;;;8.4;;
15500;SDS011;7852;52.228;5.990;2023-11-19T05:52:43;21.8;;;7.3;;
15500;SDS011;7852;52.228;5.990;2023-11-19T05:54:43;28.9;;;7.3;;
15500;SDS011;7852;52.228;5.990;2023-11-19T05:55:44;30.9;;;8.5;;
15500;SDS011;7852;52.228;5.990;2023-11-19T05:56:47;18.5;;;7.9;;
15500;SDS011;7852;52.228;5.990;2023-11-19T05:57:44;25.7;;;7.7;;
15500;SDS011;7852;52.228;5.990;2023-11-19T05:58:43;24.8;;;7.7;;
15500;SDS011;7852;52.228;5.990;2023-11-19T05:59:45;17.4;;;6.4;;
15500;SDS011;7852;52.228;5.990;2023-11-19T06:00:43;31.1;;;7;;
15500;SDS011;7852;52.228;5.990;2023-11-19T06:01:43;28.1;;;7.9;;
15500;SDS011;7852;52.228;5.990;2023-11-19T06:02:43;20.8;;;7.2;;
15500;SDS011;7852;52.228;5.990;2023-11-19T06:03:43;20.7;;;6.4;;
15500;SDS011;7852;52.228;5.990;2023-11-19T06:04:43;26.3;;;8.2;;
15500;SDS011;7852;52.228;5.990;2023-11-19T06:06:43;15.3;;;5.6;;
15500;SDS011;7852;52.228;5.990;2023-11-19T06:07:53;19.1;;;6.9;;
15500;SDS011;7852;52.228;5.990;2023-11-19T06:08:43;28.1;;;7;;
15500;SDS011;7852;52.228;5.990;2023-11-19T06:09:43;27.6;;;7.9;;
15500;SDS011;7852;52.228;5.990;2023-11-19T06:10:43;21.4;;;8.3;;
15500;SDS011;7852;52.228;5.990;2023-11-19T06:11:43;24.4;;;7.8;;
15500;SDS011;7852;52.228;5.990;2023-11-19T06:12:44;28.8;;;7.8;;
15500;SDS011;7852;52.228;5.990;2023-11-19T06:13:43;26.1;;;8.2;;
15500;SDS011;7852;52.228;5.990;2023-11-19T06:14:43;20.8;;;7.7;;
15500;SDS011;7852;52.228;5.990;2023-11-19T06:15:43;23.5;;;7.5;;
15500;SDS011;7852;52.228;5.990;2023-11-19T06:16:43;25;;;7.3;;